< Typhoon 198907 1989 Season Typhoon 198909 >
Typhoon 198908 (GORDON)
General InformationTrack Information on Google MapsDetailed Wind InformationList of All Images || Disaster Info.ResourceGoogle EarthGE AnimationAtom FeedGeoJSON
Detalied Best Track (Time Zone = UTC)
Year Month Day Hour Lat. Long. Pressure (hPa) Wind (kt) Class Image Chart
1989 7 11 00 18.5 148.5 1008 0 2 Image Chart
1989 7 11 06 18.5 147.2 1004 0 2 Image Chart
1989 7 11 12 18.5 146.0 1000 0 2 Image Chart
1989 7 11 18 18.5 144.6 1000 0 2 Image Chart
1989 7 12 00 18.5 143.2 996 40 3 Image Chart
1989 7 12 06 18.5 141.7 992 40 3 Image Chart
1989 7 12 12 18.3 140.4 990 45 3 Image Chart
1989 7 12 18 18.2 138.7 985 50 4 Image Chart
1989 7 13 00 18.0 137.1 980 55 4 Image Chart
1989 7 13 06 17.5 135.4 975 60 4 Image Chart
1989 7 13 12 17.1 134.0 970 65 5 Image Chart
1989 7 13 18 16.8 132.8 965 70 5 Image Chart
1989 7 14 00 16.4 131.5 950 75 5 Image Chart
1989 7 14 06 16.4 130.1 950 80 5 Image Chart
1989 7 14 12 16.3 128.7 940 85 5 Image Chart
1989 7 14 18 16.4 127.5 935 90 5 Image Chart
1989 7 15 00 16.6 126.3 925 95 5 Image Chart
1989 7 15 06 16.9 125.2 915 100 5 Image Chart
1989 7 15 12 17.5 124.0 915 100 5 Image Chart
1989 7 15 18 18.0 122.5 925 95 5 Image Chart
1989 7 16 00 18.1 121.3 940 85 5 Image Chart
1989 7 16 06 18.2 120.2 955 75 5 Image Chart
1989 7 16 12 18.6 119.0 955 75 5 Image Chart
1989 7 16 18 19.0 117.7 960 75 5 Image Chart
1989 7 17 00 19.3 116.6 965 70 5 Image Chart
1989 7 17 06 19.8 115.8 965 70 5 Image Chart
1989 7 17 12 20.3 114.9 970 65 5 Image Chart
1989 7 17 18 20.8 113.7 970 65 5 Image Chart
1989 7 18 00 21.3 112.3 980 55 4 Image Chart
1989 7 18 06 21.7 111.4 980 55 4 Image Chart
1989 7 18 12 22.0 110.3 985 50 4 Image Chart
1989 7 18 18 22.5 109.0 992 40 3 Image Chart
1989 7 19 00 22.5 107.5 996 0 2 Image Chart
1989 7 19 06 22.5 106.0 998 0 2 Image Chart
Japan Meteorological Agency Best Track Data | Correction Date : 1992-10-21
< Typhoon 198907 1989 Season Typhoon 198909 >

Help